Time;durP1;ratioP1;P1;durP2;ratioP2;P2;SDS_P1;SDS_P2;PMS_P1;PMS_P2;Temp;Humidity;BMP_temperature;BMP_pressure;BME280_temperature;BME280_humidity;BME280_pressure;Samples;Min_cycle;Max_cycle;Signal;HPM_P1;HPM_P2
2023/07/14 00:00:34;;;;;;;3.92;2.58;;;18.60;99.90;;;;;;5100223;27;20024;-39
2023/07/14 00:03:00;;;;;;;4.13;2.75;;;18.60;99.90;;;;;;5080009;28;20486;-38
2023/07/14 00:05:33;;;;;;;3.47;2.75;;;18.30;99.90;;;;;;5077618;28;20025;-39
2023/07/14 00:07:59;;;;;;;3.00;2.70;;;18.40;99.90;;;;;;5074807;28;20375;-38
2023/07/14 00:10:31;;;;;;;4.13;2.70;;;18.40;99.90;;;;;;5082324;28;20036;-31
2023/07/14 00:13:02;;;;;;;2.92;2.60;;;18.50;99.90;;;;;;5077278;28;20025;-38
2023/07/14 00:15:32;;;;;;;5.10;2.75;;;18.30;99.90;;;;;;5074571;28;20029;-36
2023/07/14 00:18:09;;;;;;;4.20;3.00;;;18.30;99.90;;;;;;5081443;28;20504;-39
2023/07/14 00:20:35;;;;;;;3.20;2.63;;;18.40;99.90;;;;;;5073890;28;20060;-38
2023/07/14 00:23:00;;;;;;;3.58;2.58;;;18.40;99.90;;;;;;5071878;28;20079;-38
2023/07/14 00:25:27;;;;;;;4.38;2.80;;;18.40;99.90;;;;;;5077835;28;20071;-39
2023/07/14 00:27:55;;;;;;;3.83;2.80;;;18.40;99.90;;;;;;5077052;28;20055;-35
2023/07/14 00:30:24;;;;;;;3.40;2.47;;;18.30;99.90;;;;;;5078065;28;20061;-32
2023/07/14 00:32:51;;;;;;;2.72;2.13;;;18.20;99.90;;;;;;5073668;28;20055;-34
2023/07/14 00:35:21;;;;;;;5.13;2.60;;;18.00;99.90;;;;;;5077793;28;20036;-34
2023/07/14 00:37:48;;;;;;;4.18;2.60;;;18.10;99.90;;;;;;5079297;28;20021;-33
2023/07/14 00:40:42;;;;;;;2.72;2.53;;;18.10;99.90;;;;;;5076019;28;20154;-35
2023/07/14 00:43:25;;;;;;;3.85;2.70;;;18.10;99.90;;;;;;5073597;28;20734;-32
2023/07/14 00:45:53;;;;;;;6.28;3.10;;;18.10;99.90;;;;;;5077695;28;20074;-34
2023/07/14 00:48:22;;;;;;;3.30;2.55;;;18.00;99.90;;;;;;5068509;28;20021;-32
2023/07/14 00:51:10;;;;;;;5.00;2.78;;;18.00;99.90;;;;;;5079768;28;20058;-36
2023/07/14 00:53:38;;;;;;;4.10;2.90;;;17.80;99.90;;;;;;5075880;28;20128;-33
2023/07/14 00:56:10;;;;;;;3.63;2.80;;;17.70;99.90;;;;;;5078662;28;20032;-33
2023/07/14 00:58:37;;;;;;;3.58;2.70;;;17.50;99.90;;;;;;5081034;28;20024;-35
2023/07/14 01:01:08;;;;;;;3.63;2.90;;;17.40;99.90;;;;;;5080726;28;20592;-31
2023/07/14 01:03:39;;;;;;;3.17;2.88;;;17.40;99.90;;;;;;5074857;28;20074;-31
2023/07/14 01:06:07;;;;;;;4.45;2.88;;;17.40;99.90;;;;;;5068266;28;20016;-31
2023/07/14 01:08:33;;;;;;;;;;;17.40;99.90;;;;;;5061385;28;20353;-30
2023/07/14 01:10:59;;;;;;;3.25;2.83;;;17.40;99.90;;;;;;5063482;28;20453;-32
2023/07/14 01:13:26;;;;;;;2.75;2.55;;;17.40;99.90;;;;;;5064048;28;20095;-30
2023/07/14 01:15:52;;;;;;;5.32;3.30;;;17.40;99.90;;;;;;5057355;28;20021;-30
2023/07/14 01:18:18;;;;;;;5.40;2.70;;;17.30;99.90;;;;;;5063433;28;20057;-31
2023/07/14 01:20:44;;;;;;;4.82;3.03;;;17.20;99.90;;;;;;5067142;28;20539;-31
2023/07/14 01:23:22;;;;;;;5.28;2.80;;;17.10;99.90;;;;;;5068973;28;20012;-31
2023/07/14 01:26:16;;;;;;;4.97;2.67;;;17.00;99.90;;;;;;5064431;28;20020;-31
2023/07/14 01:28:43;;;;;;;2.75;2.22;;;16.90;99.90;;;;;;5043982;28;20065;-31
2023/07/14 01:31:16;;;;;;;2.38;2.15;;;16.90;99.90;;;;;;5065306;28;20025;-32
2023/07/14 01:33:42;;;;;;;3.00;2.35;;;16.60;99.90;;;;;;5060975;28;20024;-32
2023/07/14 01:36:08;;;;;;;2.63;2.42;;;16.60;99.90;;;;;;5064123;28;20386;-31
2023/07/14 01:38:34;;;;;;;3.60;2.50;;;16.30;99.90;;;;;;5063939;28;20037;-30
2023/07/14 01:41:00;;;;;;;2.90;2.67;;;16.40;99.90;;;;;;5064189;28;20017;-31
2023/07/14 01:43:26;;;;;;;5.00;3.00;;;16.40;99.90;;;;;;5057526;28;20468;-31
2023/07/14 01:46:01;;;;;;;3.15;2.40;;;16.40;99.90;;;;;;5067131;28;20115;-33
2023/07/14 01:48:49;;;;;;;3.35;2.53;;;16.40;99.90;;;;;;5062108;28;20438;-31
2023/07/14 01:51:15;;;;;;;2.72;2.53;;;16.40;99.90;;;;;;5093058;28;20033;-31
2023/07/14 01:54:00;;;;;;;3.85;2.80;;;16.40;99.90;;;;;;5063796;28;20770;-32
2023/07/14 01:56:27;;;;;;;3.78;2.33;;;16.30;99.90;;;;;;5061745;28;20029;-35
2023/07/14 01:58:59;;;;;;;4.55;2.58;;;16.30;99.90;;;;;;5064390;28;20024;-37
2023/07/14 02:01:27;;;;;;;3.80;2.40;;;16.30;99.90;;;;;;5059653;28;20521;-31
2023/07/14 02:03:55;;;;;;;2.67;2.47;;;16.20;99.90;;;;;;5063758;28;20162;-31
2023/07/14 02:06:22;;;;;;;5.30;2.60;;;16.20;99.90;;;;;;5062485;28;20087;-35
2023/07/14 02:08:48;;;;;;;2.90;2.53;;;16.10;99.90;;;;;;5057250;28;20035;-33
2023/07/14 02:11:23;;;;;;;2.72;2.53;;;16.10;99.90;;;;;;5063822;28;20029;-35
2023/07/14 02:13:52;;;;;;;4.00;2.97;;;16.00;99.90;;;;;;5063511;28;20035;-37
2023/07/14 02:16:17;;;;;;;6.60;2.75;;;15.90;99.90;;;;;;5058527;28;20106;-32
2023/07/14 02:18:45;;;;;;;2.70;2.35;;;15.80;99.90;;;;;;5062841;28;20114;-33
2023/07/14 02:21:14;;;;;;;5.20;2.80;;;15.80;99.90;;;;;;5057761;28;20039;-33
2023/07/14 02:23:41;;;;;;;2.70;2.50;;;15.80;99.90;;;;;;5056112;28;20033;-37
2023/07/14 02:26:19;;;;;;;3.03;2.22;;;15.70;99.90;;;;;;5063617;28;20078;-34
2023/07/14 02:28:44;;;;;;;2.70;2.50;;;15.80;99.90;;;;;;5059514;28;20464;-32
2023/07/14 02:31:23;;;;;;;6.00;2.45;;;15.70;99.90;;;;;;5060678;28;20041;-34
2023/07/14 02:33:50;;;;;;;2.95;2.60;;;15.70;99.90;;;;;;5060039;28;20502;-38
2023/07/14 02:36:16;;;;;;;4.20;2.33;;;15.50;99.90;;;;;;5056379;28;20478;-33
2023/07/14 02:38:42;;;;;;;3.65;2.70;;;15.50;99.90;;;;;;5061666;28;20025;-33
2023/07/14 02:41:22;;;;;;;2.40;2.20;;;15.50;99.90;;;;;;5064158;28;20035;-33
2023/07/14 02:43:51;;;;;;;3.65;3.05;;;15.50;99.90;;;;;;5060859;28;20033;-36
2023/07/14 02:46:28;;;;;;;2.78;2.10;;;15.30;99.90;;;;;;5059695;28;20605;-34
2023/07/14 02:48:54;;;;;;;4.00;2.55;;;15.30;99.90;;;;;;5054927;28;20060;-33
2023/07/14 02:51:20;;;;;;;5.20;3.00;;;15.30;99.90;;;;;;5057763;28;20125;-34
2023/07/14 02:53:45;;;;;;;3.80;2.45;;;15.30;99.90;;;;;;5057770;28;20206;-34
2023/07/14 02:56:11;;;;;;;4.53;2.88;;;15.30;99.90;;;;;;5068083;28;20044;-35
2023/07/14 02:58:37;;;;;;;2.70;2.33;;;15.40;99.90;;;;;;5065098;28;20025;-34
2023/07/14 03:01:04;;;;;;;4.03;2.65;;;15.40;99.90;;;;;;5057442;28;20100;-33
2023/07/14 03:03:33;;;;;;;2.85;2.58;;;15.10;99.90;;;;;;5057917;28;20055;-34
2023/07/14 03:05:59;;;;;;;3.30;2.92;;;15.00;99.90;;;;;;5064089;28;20044;-35
2023/07/14 03:08:27;;;;;;;3.95;3.10;;;14.90;99.90;;;;;;5060598;28;20028;-33
2023/07/14 03:10:59;;;;;;;3.17;2.65;;;14.90;99.90;;;;;;5062211;28;20095;-34
2023/07/14 03:13:25;;;;;;;2.90;2.63;;;14.90;99.90;;;;;;5061976;28;20059;-33
2023/07/14 03:15:51;;;;;;;4.43;2.42;;;15.00;99.90;;;;;;5054036;28;20514;-34
2023/07/14 03:18:18;;;;;;;5.07;2.30;;;15.00;99.90;;;;;;5059815;28;20024;-33
2023/07/14 03:20:44;;;;;;;5.55;2.38;;;15.00;99.90;;;;;;5056396;28;20057;-33
2023/07/14 03:23:10;;;;;;;2.65;2.40;;;15.00;99.90;;;;;;5061624;28;20020;-36
2023/07/14 03:25:36;;;;;;;2.80;2.50;;;15.00;99.90;;;;;;5062929;28;20035;-33
2023/07/14 03:28:03;;;;;;;3.95;2.22;;;15.00;99.90;;;;;;5058753;28;20035;-34
2023/07/14 03:30:29;;;;;;;3.08;2.33;;;15.00;99.90;;;;;;5057947;28;20662;-34
2023/07/14 03:32:55;;;;;;;3.30;2.50;;;15.00;99.90;;;;;;5060990;28;20021;-34
2023/07/14 03:35:20;;;;;;;3.33;2.50;;;15.00;99.90;;;;;;5058832;28;20044;-32
2023/07/14 03:37:46;;;;;;;4.38;2.40;;;15.00;99.90;;;;;;5062072;28;20021;-33
2023/07/14 03:40:13;;;;;;;3.05;2.70;;;14.90;99.90;;;;;;5062390;28;20020;-34
2023/07/14 03:42:40;;;;;;;3.00;2.80;;;14.80;99.90;;;;;;5056500;28;20031;-32
2023/07/14 03:45:06;;;;;;;5.03;2.50;;;14.90;99.90;;;;;;5058225;28;20557;-32
2023/07/14 03:47:33;;;;;;;2.63;2.15;;;14.90;99.90;;;;;;5056592;28;20115;-35
2023/07/14 03:49:58;;;;;;;3.33;2.25;;;14.80;99.90;;;;;;5057546;28;20031;-34
2023/07/14 03:52:24;;;;;;;2.33;2.00;;;14.80;99.90;;;;;;5061150;28;20116;-33
2023/07/14 03:54:50;;;;;;;3.22;2.00;;;14.80;99.90;;;;;;5059497;28;20044;-34
2023/07/14 03:57:15;;;;;;;3.72;2.50;;;14.80;99.90;;;;;;5059557;28;20040;-34
2023/07/14 03:59:41;;;;;;;3.03;2.50;;;14.80;99.90;;;;;;5058654;28;20035;-39
2023/07/14 04:02:07;;;;;;;2.83;2.38;;;14.80;99.90;;;;;;5056104;28;20379;-33
2023/07/14 04:04:33;;;;;;;2.05;1.85;;;14.80;99.90;;;;;;5063122;28;20029;-33
2023/07/14 04:06:58;;;;;;;2.92;1.90;;;14.80;99.90;;;;;;5060691;28;20036;-33
2023/07/14 04:09:24;;;;;;;2.20;1.80;;;14.80;99.90;;;;;;5056305;28;20039;-35
2023/07/14 04:11:50;;;;;;;2.92;1.90;;;14.70;99.90;;;;;;5061321;28;20056;-35
2023/07/14 04:14:16;;;;;;;5.47;2.05;;;14.80;99.90;;;;;;5059153;28;20029;-32
2023/07/14 04:16:42;;;;;;;2.78;1.92;;;14.80;99.90;;;;;;5053689;28;20079;-32
2023/07/14 04:19:07;;;;;;;2.67;1.92;;;14.80;99.90;;;;;;5074681;28;20112;-33
2023/07/14 04:21:33;;;;;;;2.25;2.05;;;14.90;99.90;;;;;;5059878;28;20032;-33
2023/07/14 04:23:59;;;;;;;4.05;2.67;;;14.90;99.90;;;;;;5057202;28;20032;-34
2023/07/14 04:26:27;;;;;;;5.32;2.40;;;14.90;99.90;;;;;;5058653;28;20029;-41
2023/07/14 04:28:53;;;;;;;5.17;2.80;;;15.00;99.90;;;;;;5054270;28;20029;-41
2023/07/14 04:31:19;;;;;;;4.88;2.85;;;15.00;99.90;;;;;;5064838;28;20075;-41
2023/07/14 04:33:46;;;;;;;4.47;2.92;;;15.00;99.90;;;;;;5079253;28;20032;-40
2023/07/14 04:36:13;;;;;;;3.53;2.50;;;15.00;99.90;;;;;;5076392;28;20537;-40
2023/07/14 04:38:42;;;;;;;5.18;3.05;;;15.10;99.90;;;;;;5084401;28;20127;-41
2023/07/14 04:41:08;;;;;;;3.80;2.67;;;15.20;99.90;;;;;;5081671;28;20110;-41
2023/07/14 04:43:34;;;;;;;3.08;2.53;;;15.20;99.90;;;;;;5080061;28;20032;-38
2023/07/14 04:45:59;;;;;;;3.00;2.70;;;15.30;99.90;;;;;;5081584;28;20024;-40
2023/07/14 04:48:25;;;;;;;3.97;3.10;;;15.30;99.90;;;;;;5079633;28;20064;-40
2023/07/14 04:50:51;;;;;;;3.85;2.63;;;15.30;99.90;;;;;;5084638;28;20094;-41
2023/07/14 04:53:19;;;;;;;3.55;2.72;;;15.40;99.90;;;;;;5082022;28;20489;-41
2023/07/14 04:55:46;;;;;;;3.15;2.72;;;15.40;99.90;;;;;;5082575;28;20765;-40
2023/07/14 04:58:14;;;;;;;5.07;3.13;;;15.50;99.90;;;;;;5082156;28;20029;-37
2023/07/14 05:00:45;;;;;;;3.15;2.72;;;15.60;99.90;;;;;;5079831;28;20040;-41
2023/07/14 05:03:10;;;;;;;6.55;2.90;;;15.70;99.90;;;;;;5061823;28;20359;-41
2023/07/14 05:05:36;;;;;;;2.90;2.70;;;15.70;99.90;;;;;;5061060;28;20044;-39
2023/07/14 05:08:02;;;;;;;3.30;3.00;;;15.70;99.90;;;;;;5060839;28;20024;-40
2023/07/14 05:10:29;;;;;;;2.70;2.50;;;15.70;99.90;;;;;;5060380;28;20037;-41
2023/07/14 05:12:56;;;;;;;4.00;2.70;;;15.80;99.90;;;;;;5064736;28;20033;-41
2023/07/14 05:15:24;;;;;;;3.17;2.92;;;16.00;99.90;;;;;;5057280;28;20455;-41
2023/07/14 05:17:50;;;;;;;4.78;3.47;;;16.10;99.90;;;;;;5061074;28;20033;-31
2023/07/14 05:20:17;;;;;;;3.47;3.17;;;16.10;99.90;;;;;;5063051;28;20024;-31
2023/07/14 05:22:52;;;;;;;3.38;3.00;;;16.20;99.90;;;;;;5059877;28;20103;-31
2023/07/14 05:25:18;;;;;;;6.35;3.40;;;16.20;99.90;;;;;;5060351;28;20076;-33
2023/07/14 05:27:45;;;;;;;3.25;2.75;;;16.10;99.90;;;;;;5063734;28;20443;-34
2023/07/14 05:30:14;;;;;;;6.03;3.10;;;15.90;99.90;;;;;;5057865;28;20029;-32
2023/07/14 05:32:41;;;;;;;3.20;2.90;;;16.00;99.90;;;;;;5067288;28;20055;-30
2023/07/14 05:35:07;;;;;;;4.00;3.60;;;16.00;99.90;;;;;;5059977;28;20036;-31
2023/07/14 05:37:33;;;;;;;4.68;3.70;;;16.00;99.90;;;;;;5060169;28;20031;-40
2023/07/14 05:39:59;;;;;;;6.70;3.72;;;16.00;99.90;;;;;;5060761;28;20773;-40
2023/07/14 05:42:24;;;;;;;4.20;3.80;;;16.20;99.90;;;;;;5058203;28;20107;-40
2023/07/14 05:44:50;;;;;;;5.68;3.70;;;16.30;99.90;;;;;;5058882;28;20031;-38
2023/07/14 05:47:15;;;;;;;3.67;3.33;;;16.30;99.90;;;;;;5059566;28;20433;-41
2023/07/14 05:49:41;;;;;;;6.90;3.67;;;16.50;99.90;;;;;;5060910;28;20075;-41
2023/07/14 05:52:12;;;;;;;5.70;3.67;;;16.50;99.90;;;;;;5063056;28;20090;-40
2023/07/14 05:54:37;;;;;;;4.97;3.70;;;16.60;99.90;;;;;;5063712;28;20044;-38
2023/07/14 05:57:03;;;;;;;4.55;3.58;;;16.70;99.90;;;;;;5061234;28;20028;-40
2023/07/14 05:59:29;;;;;;;4.03;3.50;;;16.90;99.90;;;;;;5060991;28;20533;-40
2023/07/14 06:01:54;;;;;;;4.05;3.65;;;16.90;99.90;;;;;;5055585;28;20033;-41
2023/07/14 06:04:20;;;;;;;7.28;3.72;;;17.00;99.90;;;;;;5061270;28;20034;-40
2023/07/14 06:06:46;;;;;;;4.50;3.70;;;17.00;99.90;;;;;;5059039;28;20032;-41
2023/07/14 06:09:13;;;;;;;5.03;3.50;;;17.10;99.90;;;;;;5061918;28;20037;-40
2023/07/14 06:11:39;;;;;;;4.10;3.30;;;17.10;99.90;;;;;;5059693;28;20025;-40
2023/07/14 06:14:05;;;;;;;6.15;3.70;;;17.40;99.90;;;;;;5057630;28;20037;-39
2023/07/14 06:16:31;;;;;;;6.13;3.78;;;17.70;99.90;;;;;;5058100;28;20492;-38
2023/07/14 06:18:56;;;;;;;5.40;3.10;;;17.80;99.90;;;;;;5059144;28;20130;-39
2023/07/14 06:21:22;;;;;;;5.78;3.58;;;18.10;99.90;;;;;;5063771;28;20032;-41
2023/07/14 06:23:48;;;;;;;4.90;3.33;;;18.30;99.90;;;;;;5060112;28;20433;-41
2023/07/14 06:26:14;;;;;;;8.25;3.80;;;18.40;99.90;;;;;;5061734;28;20028;-41
2023/07/14 06:28:41;;;;;;;3.83;3.10;;;18.60;99.90;;;;;;5057794;28;20040;-39
2023/07/14 06:31:07;;;;;;;5.75;3.70;;;18.80;99.90;;;;;;5058313;28;20040;-40
2023/07/14 06:33:33;;;;;;;5.35;3.60;;;18.80;99.90;;;;;;5061851;28;20028;-39
2023/07/14 06:36:00;;;;;;;7.38;3.28;;;19.00;99.90;;;;;;5063016;28;20067;-36
2023/07/14 06:38:28;;;;;;;4.82;3.20;;;19.10;99.90;;;;;;5060351;28;20028;-37
2023/07/14 06:41:02;;;;;;;4.65;3.72;;;19.30;99.90;;;;;;5058165;28;20013;-41
2023/07/14 06:43:32;;;;;;;4.57;3.58;;;19.30;99.90;;;;;;5063513;28;20544;-39
2023/07/14 06:45:58;;;;;;;4.20;3.63;;;19.30;99.90;;;;;;5058239;28;20020;-41
2023/07/14 06:48:25;;;;;;;4.05;3.65;;;19.20;99.90;;;;;;5061444;28;20068;-40
2023/07/14 06:50:51;;;;;;;6.05;3.22;;;19.30;99.90;;;;;;5059201;28;20017;-41
2023/07/14 06:53:18;;;;;;;5.05;3.15;;;19.30;99.90;;;;;;5060982;28;20504;-40
2023/07/14 06:55:44;;;;;;;4.35;3.50;;;19.50;99.90;;;;;;5061183;28;20457;-41
2023/07/14 06:58:11;;;;;;;4.93;3.88;;;19.70;99.90;;;;;;5063827;28;20020;-39
2023/07/14 07:00:37;;;;;;;4.50;3.30;;;20.00;99.90;;;;;;5057493;28;20036;-39
2023/07/14 07:03:04;;;;;;;7.32;3.55;;;20.00;99.90;;;;;;5059593;28;20028;-40
2023/07/14 07:05:33;;;;;;;5.32;3.72;;;20.20;99.90;;;;;;5065949;28;20029;-41
2023/07/14 07:07:59;;;;;;;5.93;3.35;;;20.30;99.90;;;;;;5059173;28;20020;-41
2023/07/14 07:10:25;;;;;;;6.55;3.97;;;20.20;99.90;;;;;;5060827;28;20029;-41
2023/07/14 07:12:50;;;;;;;6.97;3.40;;;20.30;99.90;;;;;;5063154;28;20025;-37
2023/07/14 07:15:16;;;;;;;4.47;2.92;;;20.40;99.90;;;;;;5056475;28;20029;-38
2023/07/14 07:17:43;;;;;;;8.05;3.83;;;20.50;99.90;;;;;;5068725;28;20029;-40
2023/07/14 07:20:09;;;;;;;3.78;2.47;;;20.60;99.90;;;;;;5058731;28;20025;-39
2023/07/14 07:22:36;;;;;;;3.05;2.47;;;20.60;99.90;;;;;;5061048;28;20113;-41
2023/07/14 07:25:02;;;;;;;3.55;2.70;;;20.70;99.90;;;;;;5063971;28;20585;-40
2023/07/14 07:27:28;;;;;;;3.70;2.55;;;20.80;99.90;;;;;;5058144;28;20041;-41
2023/07/14 07:29:54;;;;;;;4.45;2.80;;;20.90;99.90;;;;;;5055101;28;20482;-39
2023/07/14 07:32:20;;;;;;;6.07;2.70;;;21.00;99.90;;;;;;5056384;28;20499;-38
2023/07/14 07:34:46;;;;;;;3.80;2.67;;;21.10;99.90;;;;;;5060400;28;20497;-39
2023/07/14 07:37:13;;;;;;;5.22;3.10;;;21.10;99.90;;;;;;5060851;28;20021;-38
2023/07/14 07:39:39;;;;;;;3.17;2.83;;;21.20;99.90;;;;;;5062811;28;20029;-39
2023/07/14 07:42:06;;;;;;;6.68;3.00;;;21.20;99.90;;;;;;5055960;28;20346;-41
2023/07/14 07:44:31;;;;;;;5.57;2.70;;;21.20;99.90;;;;;;5058400;28;20466;-41
2023/07/14 07:46:57;;;;;;;5.10;2.90;;;21.30;99.90;;;;;;5062720;28;20059;-41
2023/07/14 07:49:23;;;;;;;4.50;3.30;;;21.50;99.90;;;;;;5057442;28;20028;-40
2023/07/14 07:51:48;;;;;;;5.32;3.22;;;21.60;99.90;;;;;;5060318;28;20047;-35
2023/07/14 07:54:14;;;;;;;5.80;3.17;;;21.60;99.90;;;;;;5061107;28;20095;-40
2023/07/14 07:56:42;;;;;;;3.33;3.00;;;21.70;99.90;;;;;;5071641;28;20030;-39
2023/07/14 07:59:09;;;;;;;;;;;21.70;99.90;;;;;;5058778;28;20020;-39
2023/07/14 08:01:34;;;;;;;3.50;3.20;;;21.70;99.90;;;;;;5053748;28;19924;-40
2023/07/14 08:04:00;;;;;;;4.22;2.67;;;21.80;99.90;;;;;;5072365;28;20049;-40
2023/07/14 08:06:27;;;;;;;4.20;2.60;;;21.90;99.90;;;;;;5058829;28;20056;-40
2023/07/14 08:08:52;;;;;;;4.45;2.80;;;22.00;99.90;;;;;;5062778;28;20111;-40
2023/07/14 08:11:18;;;;;;;2.90;2.70;;;22.00;99.90;;;;;;5059767;28;20116;-40
2023/07/14 08:13:44;;;;;;;3.20;2.50;;;21.90;99.90;;;;;;5061879;28;20112;-40
2023/07/14 08:16:10;;;;;;;4.55;2.88;;;22.00;99.90;;;;;;5073819;28;20017;-40
2023/07/14 08:18:36;;;;;;;3.75;2.53;;;22.10;99.90;;;;;;5062015;28;20055;-39
2023/07/14 08:21:02;;;;;;;2.90;2.65;;;22.10;99.90;;;;;;5075077;28;20025;-41
2023/07/14 08:23:28;;;;;;;3.90;3.33;;;22.30;99.90;;;;;;5059659;28;20025;-39
2023/07/14 08:25:55;;;;;;;4.82;2.97;;;22.20;99.90;;;;;;5065218;28;20494;-41
2023/07/14 08:28:21;;;;;;;3.42;2.80;;;22.10;99.90;;;;;;5065577;28;20512;-39
2023/07/14 08:30:50;;;;;;;4.00;2.90;;;22.20;99.90;;;;;;5059900;28;20044;-40
2023/07/14 08:33:17;;;;;;;4.75;2.70;;;22.30;99.90;;;;;;5061982;28;20070;-40
2023/07/14 08:35:42;;;;;;;3.20;2.50;;;22.70;99.90;;;;;;5062928;28;20497;-34
2023/07/14 08:38:08;;;;;;;6.13;2.75;;;23.00;99.90;;;;;;5062947;28;20020;-41
2023/07/14 08:41:00;;;;;;;3.78;2.50;;;22.80;99.90;;;;;;5063955;28;20074;-39
2023/07/14 08:43:55;;;;;;;3.10;2.80;;;22.90;99.90;;;;;;5063418;28;20763;-42
2023/07/14 08:46:53;;;;;;;2.72;2.40;;;22.90;99.90;;;;;;5061253;28;20413;-43
2023/07/14 08:49:32;;;;;;;4.10;2.22;;;23.00;99.90;;;;;;5062867;28;20017;-37
2023/07/14 08:52:03;;;;;;;3.72;2.22;;;23.40;99.90;;;;;;5064727;28;20108;-39
2023/07/14 08:54:46;;;;;;;3.05;2.40;;;23.40;99.90;;;;;;5066831;28;20047;-39
2023/07/14 08:57:23;;;;;;;2.80;2.25;;;23.70;99.90;;;;;;5060321;28;20371;-38
2023/07/14 08:59:58;;;;;;;3.38;2.60;;;23.60;99.90;;;;;;5062936;28;20448;-38
2023/07/14 09:02:36;;;;;;;2.75;2.33;;;23.30;99.90;;;;;;5059748;28;20048;-40
2023/07/14 09:05:08;;;;;;;4.18;2.65;;;23.10;99.90;;;;;;5068099;28;20032;-40
2023/07/14 09:07:34;;;;;;;2.40;2.20;;;23.00;99.90;;;;;;5066537;28;20075;-32
2023/07/14 09:09:59;;;;;;;2.47;2.05;;;23.50;99.90;;;;;;5060684;28;20486;-32
2023/07/14 09:12:36;;;;;;;3.08;2.45;;;23.70;99.90;;;;;;5065616;28;20387;-35
2023/07/14 09:15:05;;;;;;;2.97;2.35;;;23.90;99.90;;;;;;5057768;28;20042;-32
2023/07/14 09:17:49;;;;;;;3.80;2.38;;;24.10;99.90;;;;;;5061737;28;20033;-32
2023/07/14 09:20:53;;;;;;;2.53;2.30;;;23.70;99.90;;;;;;5061493;28;20040;-37
2023/07/14 09:23:29;;;;;;;4.75;2.25;;;23.40;99.90;;;;;;5062502;28;20024;-32
2023/07/14 09:26:18;;;;;;;2.53;2.30;;;23.40;99.90;;;;;;5065837;28;20397;-32
2023/07/14 09:28:48;;;;;;;1.85;1.75;;;23.60;99.90;;;;;;5059146;28;20036;-33
2023/07/14 09:31:53;;;;;;;4.90;1.98;;;24.20;99.90;;;;;;5090700;28;20665;-32
2023/07/14 09:34:30;;;;;;;3.38;1.98;;;25.00;99.90;;;;;;5057122;28;20052;-32
2023/07/14 09:36:56;;;;;;;;;;;25.00;99.90;;;;;;5061599;28;20033;-32
2023/07/14 09:39:28;;;;;;;2.05;1.73;;;25.10;99.90;;;;;;5063221;28;19912;-34
2023/07/14 09:41:58;;;;;;;2.08;1.75;;;25.20;99.90;;;;;;5066880;28;20038;-37
2023/07/14 09:44:24;;;;;;;3.80;2.00;;;24.50;99.90;;;;;;5062969;28;20037;-32
2023/07/14 09:46:51;;;;;;;2.40;1.70;;;24.30;99.90;;;;;;5060322;28;20448;-35
2023/07/14 09:49:41;;;;;;;2.17;1.58;;;24.30;99.90;;;;;;5059011;28;20027;-34
2023/07/14 09:52:20;;;;;;;1.95;1.70;;;24.50;99.90;;;;;;5062098;28;20032;-33
2023/07/14 09:54:53;;;;;;;2.38;1.83;;;24.90;99.90;;;;;;5077477;28;20068;-33
2023/07/14 09:57:23;;;;;;;4.35;1.77;;;24.70;99.90;;;;;;5059593;28;20107;-32
2023/07/14 09:59:58;;;;;;;1.60;1.50;;;24.90;99.90;;;;;;5060959;28;20505;-34
2023/07/14 10:02:32;;;;;;;3.33;1.63;;;25.00;99.90;;;;;;5064609;28;20498;-35
2023/07/14 10:05:34;;;;;;;1.88;1.63;;;25.30;99.90;;;;;;5061073;28;20044;-33
2023/07/14 10:08:05;;;;;;;3.97;1.65;;;25.20;99.90;;;;;;5060958;28;20111;-36
2023/07/14 10:10:37;;;;;;;3.97;1.67;;;25.30;99.90;;;;;;5062669;28;20032;-33
2023/07/14 10:13:26;;;;;;;2.22;2.00;;;25.40;99.90;;;;;;5061898;28;20669;-34
2023/07/14 10:16:07;;;;;;;2.28;1.75;;;25.70;99.90;;;;;;5059078;28;20040;-33
2023/07/14 10:18:49;;;;;;;1.95;1.70;;;25.70;99.90;;;;;;5057446;28;20103;-39
2023/07/14 10:21:22;;;;;;;3.10;1.67;;;25.50;99.90;;;;;;5079302;28;20409;-43
2023/07/14 10:24:02;;;;;;;2.55;1.77;;;25.20;99.90;;;;;;5060420;28;20880;-40
2023/07/14 10:26:39;;;;;;;1.80;1.70;;;24.80;99.90;;;;;;5061986;28;20027;-41
2023/07/14 10:29:16;;;;;;;4.30;1.63;;;24.70;99.90;;;;;;5062311;28;20028;-42
2023/07/14 10:31:47;;;;;;;3.00;1.70;;;25.20;99.90;;;;;;5056412;28;20045;-43
2023/07/14 10:34:24;;;;;;;2.13;1.70;;;25.70;99.90;;;;;;5094408;27;20031;-33
2023/07/14 10:36:55;;;;;;;2.55;1.83;;;25.50;99.90;;;;;;5060745;28;20482;-41
2023/07/14 10:39:23;;;;;;;2.42;2.00;;;25.10;99.90;;;;;;5061325;28;20025;-42
2023/07/14 10:41:51;;;;;;;2.22;1.80;;;24.90;99.90;;;;;;5063300;28;20020;-40
2023/07/14 10:44:27;;;;;;;1.83;1.73;;;24.80;99.90;;;;;;5061959;28;20033;-42
2023/07/14 10:46:58;;;;;;;6.03;2.20;;;24.80;99.90;;;;;;5059278;28;20068;-40
2023/07/14 10:49:36;;;;;;;1.85;1.75;;;24.60;99.90;;;;;;5058713;28;20432;-42
2023/07/14 10:52:11;;;;;;;2.10;1.95;;;24.60;99.90;;;;;;5059680;28;20528;-41
2023/07/14 10:55:11;;;;;;;2.45;1.95;;;24.70;99.90;;;;;;5062589;28;20489;-42
2023/07/14 10:57:54;;;;;;;2.75;1.63;;;25.10;99.90;;;;;;5050751;28;20063;-43
2023/07/14 11:00:23;;;;;;;2.35;1.77;;;25.30;99.90;;;;;;5061618;28;20032;-41
2023/07/14 11:03:01;;;;;;;3.40;1.88;;;25.30;99.90;;;;;;5061195;28;20502;-40
2023/07/14 11:05:27;;;;;;;1.83;1.73;;;25.30;99.90;;;;;;5063876;28;20165;-42
2023/07/14 11:07:54;;;;;;;2.15;1.48;;;25.30;99.90;;;;;;5063613;28;20522;-41
2023/07/14 11:10:29;;;;;;;2.33;1.60;;;25.50;99.90;;;;;;5060166;28;20386;-41
2023/07/14 11:13:03;;;;;;;2.10;1.73;;;26.10;99.90;;;;;;5058966;28;20058;-40
2023/07/14 11:15:41;;;;;;;2.13;1.55;;;25.90;99.90;;;;;;5063936;28;20495;-41
2023/07/14 11:18:23;;;;;;;2.13;1.67;;;25.40;99.90;;;;;;5057330;28;20032;-42
2023/07/14 11:21:06;;;;;;;2.20;1.70;;;25.20;99.90;;;;;;5063118;28;20040;-42
2023/07/14 11:23:54;;;;;;;1.92;1.67;;;25.20;99.90;;;;;;5061005;28;20130;-42
2023/07/14 11:26:30;;;;;;;2.15;1.63;;;25.20;99.90;;;;;;5061999;28;20024;-33
2023/07/14 11:29:32;;;;;;;1.98;1.70;;;25.60;99.90;;;;;;5057113;28;20014;-33
2023/07/14 11:32:00;;;;;;;1.80;1.70;;;25.70;99.90;;;;;;5064980;28;20035;-33
2023/07/14 11:34:39;;;;;;;3.00;1.80;;;25.90;99.90;;;;;;5077671;28;20717;-34
2023/07/14 11:37:17;;;;;;;1.67;1.58;;;26.00;99.90;;;;;;5081015;28;20024;-35
2023/07/14 11:39:56;;;;;;;1.83;1.73;;;26.30;99.90;;;;;;5087346;28;20024;-33
2023/07/14 11:42:32;;;;;;;1.92;1.60;;;26.20;99.90;;;;;;5083279;28;20030;-34
2023/07/14 11:45:00;;;;;;;2.47;1.70;;;26.00;99.90;;;;;;5078396;28;20481;-33
2023/07/14 11:47:36;;;;;;;2.05;1.60;;;25.90;99.90;;;;;;5083090;28;20032;-32
2023/07/14 11:50:24;;;;;;;2.63;1.73;;;25.90;99.90;;;;;;5080884;28;20028;-34
2023/07/14 11:53:06;;;;;;;1.70;1.60;;;25.90;99.90;;;;;;5079441;28;20031;-32
2023/07/14 11:55:33;;;;;;;2.20;1.48;;;25.80;99.90;;;;;;5084149;28;20043;-32
2023/07/14 11:58:26;;;;;;;1.88;1.67;;;25.80;99.90;;;;;;5077300;28;20032;-32
2023/07/14 12:01:13;;;;;;;2.63;1.73;;;25.70;99.90;;;;;;5085794;28;20032;-33
2023/07/14 12:03:41;;;;;;;1.70;1.60;;;25.40;99.90;;;;;;5079094;28;20118;-31
2023/07/14 12:06:18;;;;;;;2.03;1.50;;;25.20;99.90;;;;;;5078292;28;20028;-36
2023/07/14 12:09:16;;;;;;;2.70;1.70;;;25.20;99.90;;;;;;5084634;28;20025;-32
2023/07/14 12:11:42;;;;;;;2.00;1.67;;;25.20;99.90;;;;;;5081398;28;20021;-32
2023/07/14 12:14:35;;;;;;;2.83;1.80;;;25.20;99.90;;;;;;5083121;28;20665;-32
2023/07/14 12:17:03;;;;;;;3.53;1.60;;;25.40;99.90;;;;;;5079242;28;20039;-32
2023/07/14 12:19:51;;;;;;;1.98;1.77;;;25.70;99.90;;;;;;5077983;28;20024;-34
2023/07/14 12:22:41;;;;;;;2.28;1.65;;;25.80;99.90;;;;;;5084720;28;20048;-33
2023/07/14 12:25:15;;;;;;;1.83;1.58;;;26.10;99.90;;;;;;5081227;28;20128;-35
2023/07/14 12:27:47;;;;;;;3.58;1.83;;;25.90;99.90;;;;;;5084916;28;20059;-34
2023/07/14 12:30:22;;;;;;;2.25;1.65;;;25.80;99.90;;;;;;5079900;28;20020;-34
2023/07/14 12:32:50;;;;;;;2.70;2.00;;;25.70;99.90;;;;;;5055007;28;20090;-32
2023/07/14 12:35:18;;;;;;;1.80;1.58;;;25.60;99.90;;;;;;5061170;28;20107;-33
2023/07/14 12:37:44;;;;;;;2.72;2.00;;;25.50;99.90;;;;;;5062822;28;20012;-41
2023/07/14 12:40:21;;;;;;;3.00;1.92;;;25.40;99.90;;;;;;5063772;28;20099;-39
2023/07/14 12:42:48;;;;;;;2.13;1.80;;;25.50;99.90;;;;;;5061106;28;20024;-41
2023/07/14 12:45:16;;;;;;;1.88;1.77;;;25.70;99.90;;;;;;5058841;28;20268;-39
2023/07/14 12:47:45;;;;;;;3.55;2.08;;;25.80;99.90;;;;;;5061814;28;20485;-38
2023/07/14 12:50:21;;;;;;;1.92;1.60;;;25.80;99.90;;;;;;5057729;28;20057;-42
2023/07/14 12:52:48;;;;;;;3.58;2.10;;;25.90;99.90;;;;;;5057632;28;20124;-42
2023/07/14 12:55:16;;;;;;;6.37;2.17;;;26.10;99.90;;;;;;5064790;28;20503;-42
2023/07/14 12:57:42;;;;;;;1.90;1.70;;;26.10;99.90;;;;;;5061324;28;20297;-42
2023/07/14 13:00:30;;;;;;;2.13;1.92;;;25.90;99.90;;;;;;5061523;28;20032;-42
2023/07/14 13:02:58;;;;;;;2.00;1.88;;;25.90;99.90;;;;;;5064021;28;20036;-42
2023/07/14 13:05:33;;;;;;;2.83;1.80;;;25.80;99.90;;;;;;5057384;28;20449;-41